sensor_id;sensor_type;location;lat;lon;timestamp;P1;durP1;ratioP1;P2;durP2;ratioP2
12842;SDS011;35724;49.324;-123.118;2022-09-25T00:03:29;1.23;;;1.13;;
12842;SDS011;35724;49.324;-123.118;2022-09-25T00:13:46;1.08;;;1.08;;
12842;SDS011;35724;49.324;-123.118;2022-09-25T00:24:03;1.20;;;1.10;;
12842;SDS011;35724;49.324;-123.118;2022-09-25T00:34:13;1.05;;;1.05;;
12842;SDS011;35724;49.324;-123.118;2022-09-25T00:55:04;0.90;;;0.90;;
12842;SDS011;35724;49.324;-123.118;2022-09-25T01:05:21;1.45;;;1.10;;
12842;SDS011;35724;49.324;-123.118;2022-09-25T01:15:36;1.10;;;1.00;;
12842;SDS011;35724;49.324;-123.118;2022-09-25T01:25:55;1.42;;;1.05;;
12842;SDS011;35724;49.324;-123.118;2022-09-25T01:36:12;1.20;;;1.10;;
12842;SDS011;35724;49.324;-123.118;2022-09-25T01:46:27;1.98;;;1.00;;
12842;SDS011;35724;49.324;-123.118;2022-09-25T01:56:41;1.00;;;1.00;;
12842;SDS011;35724;49.324;-123.118;2022-09-25T02:06:53;1.45;;;1.08;;
12842;SDS011;35724;49.324;-123.118;2022-09-25T02:17:10;1.10;;;1.00;;
12842;SDS011;35724;49.324;-123.118;2022-09-25T02:28:02;1.00;;;0.95;;
12842;SDS011;35724;49.324;-123.118;2022-09-25T02:38:14;1.10;;;1.00;;
12842;SDS011;35724;49.324;-123.118;2022-09-25T02:48:27;1.20;;;1.10;;
12842;SDS011;35724;49.324;-123.118;2022-09-25T02:58:47;1.00;;;1.00;;
12842;SDS011;35724;49.324;-123.118;2022-09-25T03:09:07;1.00;;;1.00;;
12842;SDS011;35724;49.324;-123.118;2022-09-25T03:19:18;1.02;;;1.00;;
12842;SDS011;35724;49.324;-123.118;2022-09-25T03:29:26;1.20;;;1.10;;
12842;SDS011;35724;49.324;-123.118;2022-09-25T03:40:07;2.15;;;1.35;;
12842;SDS011;35724;49.324;-123.118;2022-09-25T03:51:21;1.35;;;1.20;;
12842;SDS011;35724;49.324;-123.118;2022-09-25T04:01:32;2.13;;;1.23;;
12842;SDS011;35724;49.324;-123.118;2022-09-25T04:11:44;1.42;;;1.30;;
12842;SDS011;35724;49.324;-123.118;2022-09-25T04:22:01;1.48;;;1.38;;
12842;SDS011;35724;49.324;-123.118;2022-09-25T04:32:13;1.67;;;1.58;;
12842;SDS011;35724;49.324;-123.118;2022-09-25T04:42:39;1.95;;;1.75;;
12842;SDS011;35724;49.324;-123.118;2022-09-25T04:52:47;2.00;;;1.80;;
12842;SDS011;35724;49.324;-123.118;2022-09-25T05:03:01;2.33;;;1.77;;
12842;SDS011;35724;49.324;-123.118;2022-09-25T05:13:12;2.28;;;2.05;;
12842;SDS011;35724;49.324;-123.118;2022-09-25T05:23:21;3.45;;;2.20;;
12842;SDS011;35724;49.324;-123.118;2022-09-25T05:33:35;2.20;;;2.00;;
12842;SDS011;35724;49.324;-123.118;2022-09-25T05:43:45;2.40;;;2.20;;
12842;SDS011;35724;49.324;-123.118;2022-09-25T05:53:53;1.90;;;1.80;;
12842;SDS011;35724;49.324;-123.118;2022-09-25T06:04:03;2.17;;;1.98;;
12842;SDS011;35724;49.324;-123.118;2022-09-25T06:14:11;2.25;;;2.00;;
12842;SDS011;35724;49.324;-123.118;2022-09-25T06:24:24;2.40;;;2.20;;
12842;SDS011;35724;49.324;-123.118;2022-09-25T06:34:41;2.38;;;2.15;;
12842;SDS011;35724;49.324;-123.118;2022-09-25T06:45:01;2.10;;;1.90;;
12842;SDS011;35724;49.324;-123.118;2022-09-25T06:55:09;2.00;;;1.90;;
12842;SDS011;35724;49.324;-123.118;2022-09-25T07:05:19;2.67;;;2.13;;
12842;SDS011;35724;49.324;-123.118;2022-09-25T07:15:27;1.83;;;1.73;;
12842;SDS011;35724;49.324;-123.118;2022-09-25T07:25:36;2.45;;;1.90;;
12842;SDS011;35724;49.324;-123.118;2022-09-25T07:35:43;1.95;;;1.75;;
12842;SDS011;35724;49.324;-123.118;2022-09-25T07:45:52;1.65;;;1.55;;
12842;SDS011;35724;49.324;-123.118;2022-09-25T07:56:00;1.80;;;1.70;;
12842;SDS011;35724;49.324;-123.118;2022-09-25T08:06:11;1.58;;;1.48;;
12842;SDS011;35724;49.324;-123.118;2022-09-25T08:16:19;1.55;;;1.45;;
12842;SDS011;35724;49.324;-123.118;2022-09-25T08:26:31;1.50;;;1.40;;
12842;SDS011;35724;49.324;-123.118;2022-09-25T08:36:39;1.85;;;1.35;;
12842;SDS011;35724;49.324;-123.118;2022-09-25T08:46:49;1.30;;;1.20;;
12842;SDS011;35724;49.324;-123.118;2022-09-25T08:57:25;1.30;;;1.20;;
12842;SDS011;35724;49.324;-123.118;2022-09-25T09:07:41;1.30;;;1.20;;
12842;SDS011;35724;49.324;-123.118;2022-09-25T09:17:53;1.30;;;1.20;;
12842;SDS011;35724;49.324;-123.118;2022-09-25T09:28:10;1.13;;;1.02;;
12842;SDS011;35724;49.324;-123.118;2022-09-25T09:38:34;1.15;;;1.05;;
12842;SDS011;35724;49.324;-123.118;2022-09-25T09:48:52;1.30;;;0.90;;
12842;SDS011;35724;49.324;-123.118;2022-09-25T09:59:11;0.90;;;0.90;;
12842;SDS011;35724;49.324;-123.118;2022-09-25T10:09:24;1.02;;;1.00;;
12842;SDS011;35724;49.324;-123.118;2022-09-25T10:19:41;1.30;;;1.20;;
12842;SDS011;35724;49.324;-123.118;2022-09-25T10:40:29;0.93;;;0.93;;
12842;SDS011;35724;49.324;-123.118;2022-09-25T10:50:41;1.20;;;1.10;;
12842;SDS011;35724;49.324;-123.118;2022-09-25T11:00:52;1.35;;;0.98;;
12842;SDS011;35724;49.324;-123.118;2022-09-25T11:11:02;0.90;;;0.90;;
12842;SDS011;35724;49.324;-123.118;2022-09-25T11:21:20;1.13;;;1.00;;
12842;SDS011;35724;49.324;-123.118;2022-09-25T11:31:36;1.00;;;0.90;;
12842;SDS011;35724;49.324;-123.118;2022-09-25T11:41:47;1.10;;;1.00;;
12842;SDS011;35724;49.324;-123.118;2022-09-25T12:02:51;0.80;;;0.80;;
12842;SDS011;35724;49.324;-123.118;2022-09-25T12:13:09;1.00;;;0.90;;
12842;SDS011;35724;49.324;-123.118;2022-09-25T12:23:26;0.70;;;0.70;;
12842;SDS011;35724;49.324;-123.118;2022-09-25T12:33:40;0.85;;;0.80;;
12842;SDS011;35724;49.324;-123.118;2022-09-25T12:44:01;0.90;;;0.90;;
12842;SDS011;35724;49.324;-123.118;2022-09-25T12:54:19;0.80;;;0.80;;
12842;SDS011;35724;49.324;-123.118;2022-09-25T13:04:40;1.30;;;1.20;;
12842;SDS011;35724;49.324;-123.118;2022-09-25T13:14:55;1.85;;;1.23;;
12842;SDS011;35724;49.324;-123.118;2022-09-25T13:25:11;1.90;;;1.58;;
12842;SDS011;35724;49.324;-123.118;2022-09-25T13:35:21;2.00;;;1.80;;
12842;SDS011;35724;49.324;-123.118;2022-09-25T13:45:31;1.98;;;1.77;;
12842;SDS011;35724;49.324;-123.118;2022-09-25T13:55:40;1.55;;;1.45;;
12842;SDS011;35724;49.324;-123.118;2022-09-25T14:05:49;1.90;;;1.75;;
12842;SDS011;35724;49.324;-123.118;2022-09-25T14:15:57;1.35;;;1.25;;
12842;SDS011;35724;49.324;-123.118;2022-09-25T14:26:16;1.60;;;1.50;;
12842;SDS011;35724;49.324;-123.118;2022-09-25T14:36:27;1.63;;;1.52;;
12842;SDS011;35724;49.324;-123.118;2022-09-25T14:46:44;1.50;;;1.40;;
12842;SDS011;35724;49.324;-123.118;2022-09-25T14:56:56;1.30;;;1.20;;
12842;SDS011;35724;49.324;-123.118;2022-09-25T15:07:13;1.40;;;1.17;;
12842;SDS011;35724;49.324;-123.118;2022-09-25T15:17:23;1.38;;;1.27;;
12842;SDS011;35724;49.324;-123.118;2022-09-25T15:27:34;1.60;;;1.50;;
12842;SDS011;35724;49.324;-123.118;2022-09-25T15:37:47;1.52;;;1.40;;
12842;SDS011;35724;49.324;-123.118;2022-09-25T15:47:56;1.42;;;1.30;;
12842;SDS011;35724;49.324;-123.118;2022-09-25T15:58:05;1.20;;;1.10;;
12842;SDS011;35724;49.324;-123.118;2022-09-25T16:08:25;1.77;;;1.40;;
12842;SDS011;35724;49.324;-123.118;2022-09-25T16:18:37;1.10;;;1.00;;
12842;SDS011;35724;49.324;-123.118;2022-09-25T16:28:49;1.58;;;1.30;;
12842;SDS011;35724;49.324;-123.118;2022-09-25T16:39:23;1.20;;;1.10;;
12842;SDS011;35724;49.324;-123.118;2022-09-25T16:49:33;1.52;;;1.17;;
12842;SDS011;35724;49.324;-123.118;2022-09-25T16:59:45;1.40;;;1.20;;
12842;SDS011;35724;49.324;-123.118;2022-09-25T17:09:58;1.05;;;0.95;;
12842;SDS011;35724;49.324;-123.118;2022-09-25T17:20:07;1.33;;;1.23;;
12842;SDS011;35724;49.324;-123.118;2022-09-25T17:30:18;1.35;;;1.10;;
12842;SDS011;35724;49.324;-123.118;2022-09-25T17:40:29;1.88;;;1.20;;
12842;SDS011;35724;49.324;-123.118;2022-09-25T17:50:41;1.55;;;1.13;;
12842;SDS011;35724;49.324;-123.118;2022-09-25T18:00:55;1.17;;;1.07;;
12842;SDS011;35724;49.324;-123.118;2022-09-25T18:11:08;0.90;;;0.90;;
12842;SDS011;35724;49.324;-123.118;2022-09-25T18:21:16;1.00;;;1.00;;
12842;SDS011;35724;49.324;-123.118;2022-09-25T18:31:43;0.77;;;0.77;;
12842;SDS011;35724;49.324;-123.118;2022-09-25T18:41:51;0.90;;;0.90;;
12842;SDS011;35724;49.324;-123.118;2022-09-25T18:52:01;0.90;;;0.90;;
12842;SDS011;35724;49.324;-123.118;2022-09-25T19:02:21;1.08;;;1.00;;
12842;SDS011;35724;49.324;-123.118;2022-09-25T19:12:32;0.73;;;0.73;;
12842;SDS011;35724;49.324;-123.118;2022-09-25T19:22:39;0.90;;;0.90;;
12842;SDS011;35724;49.324;-123.118;2022-09-25T19:32:52;0.90;;;0.90;;
12842;SDS011;35724;49.324;-123.118;2022-09-25T19:43:00;1.55;;;1.00;;
12842;SDS011;35724;49.324;-123.118;2022-09-25T19:53:09;0.98;;;0.88;;
12842;SDS011;35724;49.324;-123.118;2022-09-25T20:03:19;0.80;;;0.80;;
12842;SDS011;35724;49.324;-123.118;2022-09-25T20:13:29;1.13;;;1.00;;
12842;SDS011;35724;49.324;-123.118;2022-09-25T20:23:47;0.82;;;0.82;;
12842;SDS011;35724;49.324;-123.118;2022-09-25T20:33:58;0.80;;;0.80;;
12842;SDS011;35724;49.324;-123.118;2022-09-25T20:44:06;0.90;;;0.90;;
12842;SDS011;35724;49.324;-123.118;2022-09-25T20:54:15;0.90;;;0.90;;
12842;SDS011;35724;49.324;-123.118;2022-09-25T21:04:23;1.20;;;1.10;;
12842;SDS011;35724;49.324;-123.118;2022-09-25T21:14:32;0.80;;;0.80;;
12842;SDS011;35724;49.324;-123.118;2022-09-25T21:24:40;0.82;;;0.82;;
12842;SDS011;35724;49.324;-123.118;2022-09-25T21:34:50;1.30;;;1.00;;
12842;SDS011;35724;49.324;-123.118;2022-09-25T21:44:59;0.82;;;0.82;;
12842;SDS011;35724;49.324;-123.118;2022-09-25T21:55:10;1.13;;;1.00;;
12842;SDS011;35724;49.324;-123.118;2022-09-25T22:05:17;0.90;;;0.90;;
12842;SDS011;35724;49.324;-123.118;2022-09-25T22:15:26;1.10;;;1.00;;
12842;SDS011;35724;49.324;-123.118;2022-09-25T22:25:34;1.00;;;1.00;;
12842;SDS011;35724;49.324;-123.118;2022-09-25T22:35:43;1.30;;;1.20;;
12842;SDS011;35724;49.324;-123.118;2022-09-25T22:45:51;1.23;;;1.13;;
12842;SDS011;35724;49.324;-123.118;2022-09-25T22:56:08;1.15;;;1.08;;
12842;SDS011;35724;49.324;-123.118;2022-09-25T23:06:16;0.93;;;0.93;;
12842;SDS011;35724;49.324;-123.118;2022-09-25T23:16:26;1.00;;;1.00;;
12842;SDS011;35724;49.324;-123.118;2022-09-25T23:26:36;1.30;;;1.20;;
12842;SDS011;35724;49.324;-123.118;2022-09-25T23:36:46;1.25;;;1.10;;
12842;SDS011;35724;49.324;-123.118;2022-09-25T23:46:55;1.27;;;1.17;;
12842;SDS011;35724;49.324;-123.118;2022-09-25T23:57:07;1.00;;;1.00;;
